sensor_id;sensor_type;location;lat;lon;timestamp;temperature;humidity
25949;DHT22;13961;51.178;4.448;2023-02-28T00:01:14;2.50;99.90
25949;DHT22;13961;51.178;4.448;2023-02-28T00:03:41;2.70;99.90
25949;DHT22;13961;51.178;4.448;2023-02-28T00:06:07;2.60;99.90
25949;DHT22;13961;51.178;4.448;2023-02-28T00:08:35;2.50;99.90
25949;DHT22;13961;51.178;4.448;2023-02-28T00:11:02;2.60;99.90
25949;DHT22;13961;51.178;4.448;2023-02-28T00:13:28;2.30;99.90
25949;DHT22;13961;51.178;4.448;2023-02-28T00:16:05;2.50;99.90
25949;DHT22;13961;51.178;4.448;2023-02-28T00:18:32;2.40;99.90
25949;DHT22;13961;51.178;4.448;2023-02-28T00:20:58;2.70;99.90
25949;DHT22;13961;51.178;4.448;2023-02-28T00:23:25;2.40;99.90
25949;DHT22;13961;51.178;4.448;2023-02-28T00:25:51;2.60;99.90
25949;DHT22;13961;51.178;4.448;2023-02-28T00:28:17;2.60;99.90
25949;DHT22;13961;51.178;4.448;2023-02-28T00:30:43;2.30;99.90
25949;DHT22;13961;51.178;4.448;2023-02-28T00:33:09;2.30;99.90
25949;DHT22;13961;51.178;4.448;2023-02-28T00:35:35;2.30;99.90
25949;DHT22;13961;51.178;4.448;2023-02-28T00:38:01;2.30;99.90
25949;DHT22;13961;51.178;4.448;2023-02-28T00:40:28;2.40;99.90
25949;DHT22;13961;51.178;4.448;2023-02-28T00:42:54;2.50;99.90
25949;DHT22;13961;51.178;4.448;2023-02-28T00:45:20;2.50;99.90
25949;DHT22;13961;51.178;4.448;2023-02-28T00:47:45;2.50;99.90
25949;DHT22;13961;51.178;4.448;2023-02-28T00:50:13;2.40;99.90
25949;DHT22;13961;51.178;4.448;2023-02-28T00:52:39;2.40;99.90
25949;DHT22;13961;51.178;4.448;2023-02-28T00:55:07;2.50;99.90
25949;DHT22;13961;51.178;4.448;2023-02-28T00:57:33;2.40;99.90
25949;DHT22;13961;51.178;4.448;2023-02-28T00:59:58;2.40;99.90
25949;DHT22;13961;51.178;4.448;2023-02-28T01:02:24;2.20;99.90
25949;DHT22;13961;51.178;4.448;2023-02-28T01:04:50;2.30;99.90
25949;DHT22;13961;51.178;4.448;2023-02-28T01:07:17;2.30;99.90
25949;DHT22;13961;51.178;4.448;2023-02-28T01:09:43;2.40;99.90
25949;DHT22;13961;51.178;4.448;2023-02-28T01:12:09;2.30;99.90
25949;DHT22;13961;51.178;4.448;2023-02-28T01:14:36;2.40;99.90
25949;DHT22;13961;51.178;4.448;2023-02-28T01:17:02;2.20;99.90
25949;DHT22;13961;51.178;4.448;2023-02-28T01:19:28;2.20;99.90
25949;DHT22;13961;51.178;4.448;2023-02-28T01:21:56;2.00;99.90
25949;DHT22;13961;51.178;4.448;2023-02-28T01:24:22;2.10;99.90
25949;DHT22;13961;51.178;4.448;2023-02-28T01:26:47;2.00;99.90
25949;DHT22;13961;51.178;4.448;2023-02-28T01:29:15;2.20;99.90
25949;DHT22;13961;51.178;4.448;2023-02-28T01:31:40;2.20;99.90
25949;DHT22;13961;51.178;4.448;2023-02-28T01:34:06;2.00;99.90
25949;DHT22;13961;51.178;4.448;2023-02-28T01:36:32;2.00;99.90
25949;DHT22;13961;51.178;4.448;2023-02-28T01:38:58;2.00;99.90
25949;DHT22;13961;51.178;4.448;2023-02-28T01:41:29;2.00;99.90
25949;DHT22;13961;51.178;4.448;2023-02-28T01:46:29;2.10;99.90
25949;DHT22;13961;51.178;4.448;2023-02-28T01:49:11;1.90;99.90
25949;DHT22;13961;51.178;4.448;2023-02-28T01:51:46;1.90;99.90
25949;DHT22;13961;51.178;4.448;2023-02-28T01:54:24;2.10;99.90
25949;DHT22;13961;51.178;4.448;2023-02-28T01:57:04;2.10;99.90
25949;DHT22;13961;51.178;4.448;2023-02-28T01:59:41;1.80;99.90
25949;DHT22;13961;51.178;4.448;2023-02-28T02:02:12;1.80;99.90
25949;DHT22;13961;51.178;4.448;2023-02-28T02:05:00;1.80;99.90
25949;DHT22;13961;51.178;4.448;2023-02-28T02:07:40;1.80;99.90
25949;DHT22;13961;51.178;4.448;2023-02-28T02:10:30;1.90;99.90
25949;DHT22;13961;51.178;4.448;2023-02-28T02:16:14;1.70;99.90
25949;DHT22;13961;51.178;4.448;2023-02-28T02:18:54;1.80;99.90
25949;DHT22;13961;51.178;4.448;2023-02-28T02:37:54;1.80;99.90
25949;DHT22;13961;51.178;4.448;2023-02-28T02:40:27;2.00;99.90
25949;DHT22;13961;51.178;4.448;2023-02-28T02:45:38;1.70;99.90
25949;DHT22;13961;51.178;4.448;2023-02-28T02:48:08;1.70;99.90
25949;DHT22;13961;51.178;4.448;2023-02-28T02:50:42;1.70;99.90
25949;DHT22;13961;51.178;4.448;2023-02-28T02:53:10;1.70;99.90
25949;DHT22;13961;51.178;4.448;2023-02-28T02:55:40;1.70;99.90
25949;DHT22;13961;51.178;4.448;2023-02-28T02:58:18;1.90;99.90
25949;DHT22;13961;51.178;4.448;2023-02-28T03:00:48;1.80;99.90
25949;DHT22;13961;51.178;4.448;2023-02-28T03:03:18;1.80;99.90
25949;DHT22;13961;51.178;4.448;2023-02-28T03:05:50;1.90;99.90
25949;DHT22;13961;51.178;4.448;2023-02-28T03:08:16;2.00;99.90
25949;DHT22;13961;51.178;4.448;2023-02-28T03:10:48;1.80;99.90
25949;DHT22;13961;51.178;4.448;2023-02-28T03:27:29;1.80;99.90
25949;DHT22;13961;51.178;4.448;2023-02-28T03:30:06;1.60;99.90
25949;DHT22;13961;51.178;4.448;2023-02-28T03:32:50;1.60;99.90
25949;DHT22;13961;51.178;4.448;2023-02-28T03:35:23;1.80;99.90
25949;DHT22;13961;51.178;4.448;2023-02-28T03:37:53;1.50;99.90
25949;DHT22;13961;51.178;4.448;2023-02-28T03:40:31;1.90;99.90
25949;DHT22;13961;51.178;4.448;2023-02-28T03:43:02;1.80;99.90
25949;DHT22;13961;51.178;4.448;2023-02-28T03:45:30;1.90;99.90
25949;DHT22;13961;51.178;4.448;2023-02-28T03:48:02;1.70;99.90
25949;DHT22;13961;51.178;4.448;2023-02-28T03:50:35;1.70;99.90
25949;DHT22;13961;51.178;4.448;2023-02-28T03:53:07;2.00;99.90
25949;DHT22;13961;51.178;4.448;2023-02-28T03:55:46;1.80;99.90
25949;DHT22;13961;51.178;4.448;2023-02-28T04:01:08;1.90;99.90
25949;DHT22;13961;51.178;4.448;2023-02-28T04:03:38;2.20;99.90
25949;DHT22;13961;51.178;4.448;2023-02-28T04:06:07;2.10;99.90
25949;DHT22;13961;51.178;4.448;2023-02-28T04:08:33;2.10;99.90
25949;DHT22;13961;51.178;4.448;2023-02-28T04:13:45;2.30;99.90
25949;DHT22;13961;51.178;4.448;2023-02-28T04:16:11;2.40;99.90
25949;DHT22;13961;51.178;4.448;2023-02-28T04:18:38;2.30;99.90
25949;DHT22;13961;51.178;4.448;2023-02-28T04:21:06;2.60;99.90
25949;DHT22;13961;51.178;4.448;2023-02-28T04:23:31;2.40;99.90
25949;DHT22;13961;51.178;4.448;2023-02-28T04:25:58;2.30;99.90
25949;DHT22;13961;51.178;4.448;2023-02-28T04:28:24;2.30;99.90
25949;DHT22;13961;51.178;4.448;2023-02-28T04:30:57;2.40;99.90
25949;DHT22;13961;51.178;4.448;2023-02-28T04:33:23;2.40;99.90
25949;DHT22;13961;51.178;4.448;2023-02-28T04:35:58;2.40;99.90
25949;DHT22;13961;51.178;4.448;2023-02-28T04:38:24;2.30;99.90
25949;DHT22;13961;51.178;4.448;2023-02-28T04:40:50;2.10;99.90
25949;DHT22;13961;51.178;4.448;2023-02-28T04:43:16;2.20;99.90
25949;DHT22;13961;51.178;4.448;2023-02-28T04:45:42;2.20;99.90
25949;DHT22;13961;51.178;4.448;2023-02-28T04:48:09;2.40;99.90
25949;DHT22;13961;51.178;4.448;2023-02-28T04:50:35;2.40;99.90
25949;DHT22;13961;51.178;4.448;2023-02-28T04:53:00;2.60;99.90
25949;DHT22;13961;51.178;4.448;2023-02-28T04:55:27;2.50;99.90
25949;DHT22;13961;51.178;4.448;2023-02-28T04:57:54;2.50;99.90
25949;DHT22;13961;51.178;4.448;2023-02-28T05:00:19;2.50;99.90
25949;DHT22;13961;51.178;4.448;2023-02-28T05:02:45;2.40;99.90
25949;DHT22;13961;51.178;4.448;2023-02-28T05:05:12;2.70;99.90
25949;DHT22;13961;51.178;4.448;2023-02-28T05:07:44;2.70;99.90
25949;DHT22;13961;51.178;4.448;2023-02-28T05:10:10;2.80;99.90
25949;DHT22;13961;51.178;4.448;2023-02-28T05:12:38;2.60;99.90
25949;DHT22;13961;51.178;4.448;2023-02-28T05:15:04;2.80;99.90
25949;DHT22;13961;51.178;4.448;2023-02-28T05:17:30;2.70;99.90
25949;DHT22;13961;51.178;4.448;2023-02-28T05:19:56;2.90;99.90
25949;DHT22;13961;51.178;4.448;2023-02-28T05:22:22;3.10;99.90
25949;DHT22;13961;51.178;4.448;2023-02-28T05:24:48;2.80;99.90
25949;DHT22;13961;51.178;4.448;2023-02-28T05:27:14;3.00;99.90
25949;DHT22;13961;51.178;4.448;2023-02-28T05:29:40;2.50;99.90
25949;DHT22;13961;51.178;4.448;2023-02-28T05:32:11;2.80;99.90
25949;DHT22;13961;51.178;4.448;2023-02-28T05:34:38;2.80;99.90
25949;DHT22;13961;51.178;4.448;2023-02-28T05:37:05;2.60;99.90
25949;DHT22;13961;51.178;4.448;2023-02-28T05:39:32;2.50;99.90
25949;DHT22;13961;51.178;4.448;2023-02-28T05:41:58;2.50;99.90
25949;DHT22;13961;51.178;4.448;2023-02-28T05:44:24;2.70;99.90
25949;DHT22;13961;51.178;4.448;2023-02-28T05:46:53;2.60;99.90
25949;DHT22;13961;51.178;4.448;2023-02-28T05:49:19;2.40;99.90
25949;DHT22;13961;51.178;4.448;2023-02-28T05:51:46;2.60;99.90
25949;DHT22;13961;51.178;4.448;2023-02-28T05:54:12;2.60;99.90
25949;DHT22;13961;51.178;4.448;2023-02-28T05:56:38;2.80;99.90
25949;DHT22;13961;51.178;4.448;2023-02-28T05:59:05;2.80;99.90
25949;DHT22;13961;51.178;4.448;2023-02-28T06:01:34;2.90;99.90
25949;DHT22;13961;51.178;4.448;2023-02-28T06:04:02;2.70;99.90
25949;DHT22;13961;51.178;4.448;2023-02-28T06:06:29;2.80;99.90
25949;DHT22;13961;51.178;4.448;2023-02-28T06:09:00;2.90;99.90
25949;DHT22;13961;51.178;4.448;2023-02-28T06:11:27;2.60;99.90
25949;DHT22;13961;51.178;4.448;2023-02-28T06:13:58;2.60;99.90
25949;DHT22;13961;51.178;4.448;2023-02-28T06:16:26;2.70;99.90
25949;DHT22;13961;51.178;4.448;2023-02-28T06:18:52;2.70;99.90
25949;DHT22;13961;51.178;4.448;2023-02-28T06:21:30;2.70;99.90
25949;DHT22;13961;51.178;4.448;2023-02-28T06:23:57;2.80;99.90
25949;DHT22;13961;51.178;4.448;2023-02-28T06:26:23;2.70;99.90
25949;DHT22;13961;51.178;4.448;2023-02-28T06:28:52;2.60;99.90
25949;DHT22;13961;51.178;4.448;2023-02-28T06:31:19;2.90;99.90
25949;DHT22;13961;51.178;4.448;2023-02-28T06:33:47;2.90;99.90
25949;DHT22;13961;51.178;4.448;2023-02-28T06:36:15;2.80;99.90
25949;DHT22;13961;51.178;4.448;2023-02-28T06:38:42;3.00;99.90
25949;DHT22;13961;51.178;4.448;2023-02-28T06:41:08;3.00;99.90
25949;DHT22;13961;51.178;4.448;2023-02-28T06:43:37;3.00;99.90
25949;DHT22;13961;51.178;4.448;2023-02-28T06:46:05;2.90;99.90
25949;DHT22;13961;51.178;4.448;2023-02-28T06:48:31;3.00;99.90
25949;DHT22;13961;51.178;4.448;2023-02-28T06:51:09;3.10;99.90
25949;DHT22;13961;51.178;4.448;2023-02-28T06:53:35;3.40;99.90
25949;DHT22;13961;51.178;4.448;2023-02-28T06:56:12;3.50;99.90
25949;DHT22;13961;51.178;4.448;2023-02-28T06:58:38;3.30;99.90
25949;DHT22;13961;51.178;4.448;2023-02-28T07:01:07;3.30;99.90
25949;DHT22;13961;51.178;4.448;2023-02-28T07:03:34;3.50;99.90
25949;DHT22;13961;51.178;4.448;2023-02-28T07:06:01;3.40;99.90
25949;DHT22;13961;51.178;4.448;2023-02-28T07:08:27;3.30;99.90
25949;DHT22;13961;51.178;4.448;2023-02-28T07:10:56;3.10;99.90
25949;DHT22;13961;51.178;4.448;2023-02-28T07:13:22;3.50;99.90
25949;DHT22;13961;51.178;4.448;2023-02-28T07:16:03;3.70;99.90
25949;DHT22;13961;51.178;4.448;2023-02-28T07:18:29;3.40;99.90
25949;DHT22;13961;51.178;4.448;2023-02-28T07:20:56;3.40;99.90
25949;DHT22;13961;51.178;4.448;2023-02-28T07:23:22;3.50;99.90
25949;DHT22;13961;51.178;4.448;2023-02-28T07:25:48;3.40;99.90
25949;DHT22;13961;51.178;4.448;2023-02-28T07:28:14;3.50;99.90
25949;DHT22;13961;51.178;4.448;2023-02-28T07:30:42;3.60;99.90
25949;DHT22;13961;51.178;4.448;2023-02-28T07:33:08;3.80;99.90
25949;DHT22;13961;51.178;4.448;2023-02-28T07:35:34;3.70;99.90
25949;DHT22;13961;51.178;4.448;2023-02-28T07:38:00;4.00;99.90
25949;DHT22;13961;51.178;4.448;2023-02-28T07:40:27;3.80;99.90
25949;DHT22;13961;51.178;4.448;2023-02-28T07:42:52;3.80;99.90
25949;DHT22;13961;51.178;4.448;2023-02-28T07:45:18;3.70;99.90
25949;DHT22;13961;51.178;4.448;2023-02-28T07:47:45;3.70;99.90
25949;DHT22;13961;51.178;4.448;2023-02-28T07:50:14;3.80;99.90
25949;DHT22;13961;51.178;4.448;2023-02-28T07:52:40;3.80;99.90
25949;DHT22;13961;51.178;4.448;2023-02-28T07:55:08;4.20;99.90
25949;DHT22;13961;51.178;4.448;2023-02-28T07:57:34;4.10;99.90
25949;DHT22;13961;51.178;4.448;2023-02-28T08:00:00;3.90;99.90
25949;DHT22;13961;51.178;4.448;2023-02-28T08:02:26;3.90;99.90
25949;DHT22;13961;51.178;4.448;2023-02-28T08:04:51;4.20;99.90
25949;DHT22;13961;51.178;4.448;2023-02-28T08:07:17;4.60;99.90
25949;DHT22;13961;51.178;4.448;2023-02-28T08:09:44;4.20;99.90
25949;DHT22;13961;51.178;4.448;2023-02-28T08:12:11;4.00;99.90
25949;DHT22;13961;51.178;4.448;2023-02-28T08:14:37;4.30;99.90
25949;DHT22;13961;51.178;4.448;2023-02-28T08:17:04;4.50;99.90
25949;DHT22;13961;51.178;4.448;2023-02-28T08:19:30;4.40;99.90
25949;DHT22;13961;51.178;4.448;2023-02-28T08:21:56;4.60;99.90
25949;DHT22;13961;51.178;4.448;2023-02-28T08:24:22;4.30;99.90
25949;DHT22;13961;51.178;4.448;2023-02-28T08:26:48;4.30;99.90
25949;DHT22;13961;51.178;4.448;2023-02-28T08:29:13;4.30;99.90
25949;DHT22;13961;51.178;4.448;2023-02-28T08:31:39;4.80;99.90
25949;DHT22;13961;51.178;4.448;2023-02-28T08:34:09;4.40;99.90
25949;DHT22;13961;51.178;4.448;2023-02-28T08:36:37;4.70;99.90
25949;DHT22;13961;51.178;4.448;2023-02-28T08:39:03;4.90;99.90
25949;DHT22;13961;51.178;4.448;2023-02-28T08:41:29;4.80;99.90
25949;DHT22;13961;51.178;4.448;2023-02-28T08:43:54;5.00;99.90
25949;DHT22;13961;51.178;4.448;2023-02-28T08:46:20;4.80;99.90
25949;DHT22;13961;51.178;4.448;2023-02-28T08:48:46;4.70;99.90
25949;DHT22;13961;51.178;4.448;2023-02-28T08:51:16;4.30;99.90
25949;DHT22;13961;51.178;4.448;2023-02-28T08:53:44;4.50;99.90
25949;DHT22;13961;51.178;4.448;2023-02-28T08:56:15;4.50;99.90
25949;DHT22;13961;51.178;4.448;2023-02-28T08:58:42;4.80;99.90
25949;DHT22;13961;51.178;4.448;2023-02-28T09:01:10;4.40;99.90
25949;DHT22;13961;51.178;4.448;2023-02-28T09:03:37;4.70;99.90
25949;DHT22;13961;51.178;4.448;2023-02-28T09:06:03;5.00;99.90
25949;DHT22;13961;51.178;4.448;2023-02-28T09:08:31;5.20;99.90
25949;DHT22;13961;51.178;4.448;2023-02-28T09:10:57;5.10;99.90
25949;DHT22;13961;51.178;4.448;2023-02-28T09:13:25;4.60;99.90
25949;DHT22;13961;51.178;4.448;2023-02-28T09:15:51;4.50;99.90
25949;DHT22;13961;51.178;4.448;2023-02-28T09:18:17;4.40;99.90
25949;DHT22;13961;51.178;4.448;2023-02-28T09:20:43;4.50;99.90
25949;DHT22;13961;51.178;4.448;2023-02-28T09:23:11;4.30;99.90
25949;DHT22;13961;51.178;4.448;2023-02-28T09:25:38;4.60;99.90
25949;DHT22;13961;51.178;4.448;2023-02-28T09:28:04;4.50;99.90
25949;DHT22;13961;51.178;4.448;2023-02-28T09:30:30;4.60;99.90
25949;DHT22;13961;51.178;4.448;2023-02-28T09:32:56;4.80;99.90
25949;DHT22;13961;51.178;4.448;2023-02-28T09:35:23;5.20;99.90
25949;DHT22;13961;51.178;4.448;2023-02-28T09:37:50;5.00;99.90
25949;DHT22;13961;51.178;4.448;2023-02-28T09:40:17;5.20;99.90
25949;DHT22;13961;51.178;4.448;2023-02-28T09:42:47;5.20;99.90
25949;DHT22;13961;51.178;4.448;2023-02-28T09:47:53;4.90;99.90
25949;DHT22;13961;51.178;4.448;2023-02-28T09:50:46;5.30;99.90
25949;DHT22;13961;51.178;4.448;2023-02-28T09:53:25;5.30;99.90
25949;DHT22;13961;51.178;4.448;2023-02-28T09:55:57;5.30;99.90
25949;DHT22;13961;51.178;4.448;2023-02-28T09:58:33;5.60;99.90
25949;DHT22;13961;51.178;4.448;2023-02-28T10:01:06;5.50;99.90
25949;DHT22;13961;51.178;4.448;2023-02-28T10:03:55;5.40;99.90
25949;DHT22;13961;51.178;4.448;2023-02-28T10:06:28;5.30;99.90
25949;DHT22;13961;51.178;4.448;2023-02-28T10:09:11;5.30;99.90
25949;DHT22;13961;51.178;4.448;2023-02-28T10:11:38;5.30;99.90
25949;DHT22;13961;51.178;4.448;2023-02-28T10:14:22;5.30;99.90
25949;DHT22;13961;51.178;4.448;2023-02-28T10:16:59;5.60;99.90
25949;DHT22;13961;51.178;4.448;2023-02-28T10:20:05;5.50;99.90
25949;DHT22;13961;51.178;4.448;2023-02-28T10:25:25;5.50;99.90
25949;DHT22;13961;51.178;4.448;2023-02-28T10:28:13;5.20;99.90
25949;DHT22;13961;51.178;4.448;2023-02-28T10:30:42;5.20;99.90
25949;DHT22;13961;51.178;4.448;2023-02-28T10:35:44;5.50;99.90
25949;DHT22;13961;51.178;4.448;2023-02-28T10:38:17;5.50;99.90
25949;DHT22;13961;51.178;4.448;2023-02-28T10:40:43;5.70;99.90
25949;DHT22;13961;51.178;4.448;2023-02-28T10:46:02;5.40;99.90
25949;DHT22;13961;51.178;4.448;2023-02-28T10:48:37;5.50;99.90
25949;DHT22;13961;51.178;4.448;2023-02-28T10:51:10;5.60;99.90
25949;DHT22;13961;51.178;4.448;2023-02-28T10:53:50;5.50;99.90
25949;DHT22;13961;51.178;4.448;2023-02-28T10:56:19;5.70;99.90
25949;DHT22;13961;51.178;4.448;2023-02-28T11:01:46;5.60;99.90
25949;DHT22;13961;51.178;4.448;2023-02-28T11:07:00;5.50;99.90
25949;DHT22;13961;51.178;4.448;2023-02-28T11:09:38;5.70;99.90
25949;DHT22;13961;51.178;4.448;2023-02-28T11:12:07;5.90;99.90
25949;DHT22;13961;51.178;4.448;2023-02-28T11:14:47;6.30;99.90
25949;DHT22;13961;51.178;4.448;2023-02-28T11:17:24;5.90;99.90
25949;DHT22;13961;51.178;4.448;2023-02-28T11:19:54;6.00;99.90
25949;DHT22;13961;51.178;4.448;2023-02-28T11:22:24;6.20;99.90
25949;DHT22;13961;51.178;4.448;2023-02-28T11:24:56;5.90;99.90
25949;DHT22;13961;51.178;4.448;2023-02-28T11:29:55;5.90;99.90
25949;DHT22;13961;51.178;4.448;2023-02-28T11:32:22;5.90;99.90
25949;DHT22;13961;51.178;4.448;2023-02-28T11:35:17;6.10;99.90
25949;DHT22;13961;51.178;4.448;2023-02-28T11:37:45;6.00;99.50
25949;DHT22;13961;51.178;4.448;2023-02-28T11:40:16;6.20;99.90
25949;DHT22;13961;51.178;4.448;2023-02-28T11:43:02;6.20;99.80
25949;DHT22;13961;51.178;4.448;2023-02-28T11:45:49;6.20;99.80
25949;DHT22;13961;51.178;4.448;2023-02-28T11:48:30;6.20;99.90
25949;DHT22;13961;51.178;4.448;2023-02-28T11:51:03;6.30;99.30
25949;DHT22;13961;51.178;4.448;2023-02-28T11:54:13;6.50;99.50
25949;DHT22;13961;51.178;4.448;2023-02-28T11:56:43;6.60;99.50
25949;DHT22;13961;51.178;4.448;2023-02-28T12:04:47;6.10;98.80
25949;DHT22;13961;51.178;4.448;2023-02-28T12:07:33;6.30;99.10
25949;DHT22;13961;51.178;4.448;2023-02-28T12:10:24;6.20;98.50
25949;DHT22;13961;51.178;4.448;2023-02-28T12:21:28;6.50;98.80
25949;DHT22;13961;51.178;4.448;2023-02-28T12:26:37;6.80;98.30
25949;DHT22;13961;51.178;4.448;2023-02-28T12:29:19;7.00;98.50
25949;DHT22;13961;51.178;4.448;2023-02-28T12:34:26;6.90;97.60
25949;DHT22;13961;51.178;4.448;2023-02-28T12:36:56;7.20;98.10
25949;DHT22;13961;51.178;4.448;2023-02-28T12:39:28;7.20;98.00
25949;DHT22;13961;51.178;4.448;2023-02-28T12:42:04;7.00;97.90
25949;DHT22;13961;51.178;4.448;2023-02-28T12:47:04;6.60;97.20
25949;DHT22;13961;51.178;4.448;2023-02-28T12:49:40;6.50;97.80
25949;DHT22;13961;51.178;4.448;2023-02-28T12:52:07;6.60;97.70
25949;DHT22;13961;51.178;4.448;2023-02-28T12:54:53;6.90;97.70
25949;DHT22;13961;51.178;4.448;2023-02-28T12:57:36;6.90;97.30
25949;DHT22;13961;51.178;4.448;2023-02-28T13:00:20;6.90;98.00
25949;DHT22;13961;51.178;4.448;2023-02-28T13:11:01;6.40;97.80
25949;DHT22;13961;51.178;4.448;2023-02-28T13:13:29;6.60;97.90
25949;DHT22;13961;51.178;4.448;2023-02-28T13:16:08;6.70;98.00
25949;DHT22;13961;51.178;4.448;2023-02-28T13:18:46;6.80;97.60
25949;DHT22;13961;51.178;4.448;2023-02-28T13:21:26;7.00;98.70
25949;DHT22;13961;51.178;4.448;2023-02-28T13:34:35;6.20;98.40
25949;DHT22;13961;51.178;4.448;2023-02-28T13:39:49;6.60;98.60
25949;DHT22;13961;51.178;4.448;2023-02-28T13:42:35;6.60;98.30
25949;DHT22;13961;51.178;4.448;2023-02-28T13:58:47;6.50;98.90
25949;DHT22;13961;51.178;4.448;2023-02-28T14:06:54;6.80;98.40
25949;DHT22;13961;51.178;4.448;2023-02-28T14:09:39;6.90;98.60
25949;DHT22;13961;51.178;4.448;2023-02-28T14:15:44;7.10;98.80
25949;DHT22;13961;51.178;4.448;2023-02-28T14:18:27;7.00;98.40
25949;DHT22;13961;51.178;4.448;2023-02-28T14:21:01;7.00;98.40
25949;DHT22;13961;51.178;4.448;2023-02-28T14:23:40;6.90;98.60
25949;DHT22;13961;51.178;4.448;2023-02-28T14:34:52;6.70;99.50
25949;DHT22;13961;51.178;4.448;2023-02-28T14:37:26;6.70;99.30
25949;DHT22;13961;51.178;4.448;2023-02-28T14:39:53;6.80;98.40
25949;DHT22;13961;51.178;4.448;2023-02-28T14:42:32;6.70;99.40
25949;DHT22;13961;51.178;4.448;2023-02-28T14:45:00;6.90;99.50
25949;DHT22;13961;51.178;4.448;2023-02-28T14:47:32;6.70;99.10
25949;DHT22;13961;51.178;4.448;2023-02-28T14:49:59;6.70;99.00
25949;DHT22;13961;51.178;4.448;2023-02-28T14:52:31;6.70;99.00
25949;DHT22;13961;51.178;4.448;2023-02-28T14:55:03;6.70;99.00
25949;DHT22;13961;51.178;4.448;2023-02-28T14:57:38;6.50;99.30
25949;DHT22;13961;51.178;4.448;2023-02-28T15:00:28;6.70;99.60
25949;DHT22;13961;51.178;4.448;2023-02-28T15:02:56;6.90;99.90
25949;DHT22;13961;51.178;4.448;2023-02-28T15:05:31;6.60;99.60
25949;DHT22;13961;51.178;4.448;2023-02-28T15:08:15;6.70;99.90
25949;DHT22;13961;51.178;4.448;2023-02-28T15:10:50;6.70;99.80
25949;DHT22;13961;51.178;4.448;2023-02-28T15:13:17;6.50;99.70
25949;DHT22;13961;51.178;4.448;2023-02-28T15:15:59;6.70;99.90
25949;DHT22;13961;51.178;4.448;2023-02-28T15:21:17;6.70;99.40
25949;DHT22;13961;51.178;4.448;2023-02-28T15:23:46;6.70;99.70
25949;DHT22;13961;51.178;4.448;2023-02-28T15:26:16;6.50;99.60
25949;DHT22;13961;51.178;4.448;2023-02-28T15:28:43;6.60;99.90
25949;DHT22;13961;51.178;4.448;2023-02-28T15:31:27;6.60;99.80
25949;DHT22;13961;51.178;4.448;2023-02-28T15:33:55;6.50;99.90
25949;DHT22;13961;51.178;4.448;2023-02-28T15:36:28;6.50;99.70
25949;DHT22;13961;51.178;4.448;2023-02-28T15:38:55;6.40;99.90
25949;DHT22;13961;51.178;4.448;2023-02-28T15:41:29;6.60;99.90
25949;DHT22;13961;51.178;4.448;2023-02-28T15:47:11;6.50;99.90
25949;DHT22;13961;51.178;4.448;2023-02-28T15:55:19;6.70;99.90
25949;DHT22;13961;51.178;4.448;2023-02-28T15:57:48;6.70;99.90
25949;DHT22;13961;51.178;4.448;2023-02-28T16:00:20;6.90;99.90
25949;DHT22;13961;51.178;4.448;2023-02-28T16:02:46;6.70;99.90
25949;DHT22;13961;51.178;4.448;2023-02-28T16:07:39;6.40;99.90
25949;DHT22;13961;51.178;4.448;2023-02-28T16:10:07;6.20;99.90
25949;DHT22;13961;51.178;4.448;2023-02-28T16:12:35;6.10;99.90
25949;DHT22;13961;51.178;4.448;2023-02-28T16:15:07;6.20;99.90
25949;DHT22;13961;51.178;4.448;2023-02-28T16:17:35;6.20;99.90
25949;DHT22;13961;51.178;4.448;2023-02-28T16:20:13;6.40;99.90
25949;DHT22;13961;51.178;4.448;2023-02-28T16:22:39;6.40;99.90
25949;DHT22;13961;51.178;4.448;2023-02-28T16:25:05;6.50;99.90
25949;DHT22;13961;51.178;4.448;2023-02-28T16:27:36;6.60;99.90
25949;DHT22;13961;51.178;4.448;2023-02-28T16:30:05;6.20;99.90
25949;DHT22;13961;51.178;4.448;2023-02-28T16:32:33;6.40;99.90
25949;DHT22;13961;51.178;4.448;2023-02-28T16:35:00;6.40;99.90
25949;DHT22;13961;51.178;4.448;2023-02-28T16:37:27;6.20;99.90
25949;DHT22;13961;51.178;4.448;2023-02-28T16:39:53;6.00;99.90
25949;DHT22;13961;51.178;4.448;2023-02-28T16:42:25;5.90;99.90
25949;DHT22;13961;51.178;4.448;2023-02-28T16:44:52;6.00;99.90
25949;DHT22;13961;51.178;4.448;2023-02-28T16:47:18;5.80;99.90
25949;DHT22;13961;51.178;4.448;2023-02-28T16:49:44;5.70;99.90
25949;DHT22;13961;51.178;4.448;2023-02-28T16:52:11;6.00;99.90
25949;DHT22;13961;51.178;4.448;2023-02-28T16:54:40;5.70;99.90
25949;DHT22;13961;51.178;4.448;2023-02-28T16:57:24;5.60;99.90
25949;DHT22;13961;51.178;4.448;2023-02-28T16:59:51;5.70;99.90
25949;DHT22;13961;51.178;4.448;2023-02-28T17:02:18;5.40;99.90
25949;DHT22;13961;51.178;4.448;2023-02-28T17:04:48;5.40;99.90
25949;DHT22;13961;51.178;4.448;2023-02-28T17:07:15;5.40;99.90
25949;DHT22;13961;51.178;4.448;2023-02-28T17:09:44;5.50;99.90
25949;DHT22;13961;51.178;4.448;2023-02-28T17:12:13;5.50;99.90
25949;DHT22;13961;51.178;4.448;2023-02-28T17:14:42;5.60;99.90
25949;DHT22;13961;51.178;4.448;2023-02-28T17:17:09;5.60;99.90
25949;DHT22;13961;51.178;4.448;2023-02-28T17:19:35;5.80;99.90
25949;DHT22;13961;51.178;4.448;2023-02-28T17:22:04;5.60;99.90
25949;DHT22;13961;51.178;4.448;2023-02-28T17:24:30;5.40;99.90
25949;DHT22;13961;51.178;4.448;2023-02-28T17:27:03;5.70;99.90
25949;DHT22;13961;51.178;4.448;2023-02-28T17:29:30;5.40;99.90
25949;DHT22;13961;51.178;4.448;2023-02-28T17:31:56;5.40;99.90
25949;DHT22;13961;51.178;4.448;2023-02-28T17:34:22;5.40;99.90
25949;DHT22;13961;51.178;4.448;2023-02-28T17:36:50;5.60;99.90
25949;DHT22;13961;51.178;4.448;2023-02-28T17:39:23;5.90;99.90
25949;DHT22;13961;51.178;4.448;2023-02-28T17:41:55;5.70;99.90
25949;DHT22;13961;51.178;4.448;2023-02-28T17:44:22;5.30;99.90
25949;DHT22;13961;51.178;4.448;2023-02-28T17:46:49;5.40;99.90
25949;DHT22;13961;51.178;4.448;2023-02-28T17:49:18;5.20;99.90
25949;DHT22;13961;51.178;4.448;2023-02-28T17:51:45;5.40;99.90
25949;DHT22;13961;51.178;4.448;2023-02-28T17:54:12;5.40;99.90
25949;DHT22;13961;51.178;4.448;2023-02-28T17:56:39;5.50;99.90
25949;DHT22;13961;51.178;4.448;2023-02-28T17:59:05;5.40;99.90
25949;DHT22;13961;51.178;4.448;2023-02-28T18:01:31;5.50;99.90
25949;DHT22;13961;51.178;4.448;2023-02-28T18:03:58;5.50;99.90
25949;DHT22;13961;51.178;4.448;2023-02-28T18:06:25;5.50;99.90
25949;DHT22;13961;51.178;4.448;2023-02-28T18:08:55;5.50;99.90
25949;DHT22;13961;51.178;4.448;2023-02-28T18:11:22;5.40;99.90
25949;DHT22;13961;51.178;4.448;2023-02-28T18:13:53;5.40;99.90
25949;DHT22;13961;51.178;4.448;2023-02-28T18:16:23;5.30;99.90
25949;DHT22;13961;51.178;4.448;2023-02-28T18:18:49;5.00;99.90
25949;DHT22;13961;51.178;4.448;2023-02-28T18:21:16;5.20;99.90
25949;DHT22;13961;51.178;4.448;2023-02-28T18:23:43;5.00;99.90
25949;DHT22;13961;51.178;4.448;2023-02-28T18:26:17;5.00;99.90
25949;DHT22;13961;51.178;4.448;2023-02-28T18:28:44;5.00;99.90
25949;DHT22;13961;51.178;4.448;2023-02-28T18:31:15;5.10;99.90
25949;DHT22;13961;51.178;4.448;2023-02-28T18:33:44;5.10;99.90
25949;DHT22;13961;51.178;4.448;2023-02-28T18:36:10;5.00;99.90